sensor_id;sensor_type;location;lat;lon;timestamp;temperature;humidity
56234;DHT22;42141;53.240;6.580;2022-09-28T00:01:50;7.70;99.90
56234;DHT22;42141;53.240;6.580;2022-09-28T00:04:16;7.70;99.90
56234;DHT22;42141;53.240;6.580;2022-09-28T00:06:42;7.70;99.90
56234;DHT22;42141;53.240;6.580;2022-09-28T00:09:08;8.20;99.90
56234;DHT22;42141;53.240;6.580;2022-09-28T00:11:33;7.70;99.90
56234;DHT22;42141;53.240;6.580;2022-09-28T00:14:00;7.80;99.90
56234;DHT22;42141;53.240;6.580;2022-09-28T00:16:38;7.80;99.90
56234;DHT22;42141;53.240;6.580;2022-09-28T00:19:05;7.80;99.90
56234;DHT22;42141;53.240;6.580;2022-09-28T00:21:34;7.90;99.90
56234;DHT22;42141;53.240;6.580;2022-09-28T00:24:01;8.10;99.90
56234;DHT22;42141;53.240;6.580;2022-09-28T00:26:52;7.90;99.90
56234;DHT22;42141;53.240;6.580;2022-09-28T00:31:44;8.30;99.90
56234;DHT22;42141;53.240;6.580;2022-09-28T00:34:10;7.90;99.90
56234;DHT22;42141;53.240;6.580;2022-09-28T00:36:36;7.90;99.90
56234;DHT22;42141;53.240;6.580;2022-09-28T00:39:05;7.90;99.90
56234;DHT22;42141;53.240;6.580;2022-09-28T00:41:31;8.50;99.90
56234;DHT22;42141;53.240;6.580;2022-09-28T00:44:36;7.80;99.90
56234;DHT22;42141;53.240;6.580;2022-09-28T00:49:47;7.80;99.90
56234;DHT22;42141;53.240;6.580;2022-09-28T00:53:00;7.80;99.90
56234;DHT22;42141;53.240;6.580;2022-09-28T00:55:08;7.80;99.90
56234;DHT22;42141;53.240;6.580;2022-09-28T00:57:38;7.70;99.90
56234;DHT22;42141;53.240;6.580;2022-09-28T01:00:06;7.70;99.90
56234;DHT22;42141;53.240;6.580;2022-09-28T01:02:31;7.70;99.90
56234;DHT22;42141;53.240;6.580;2022-09-28T01:04:58;7.70;99.90
56234;DHT22;42141;53.240;6.580;2022-09-28T01:07:25;7.70;99.90
56234;DHT22;42141;53.240;6.580;2022-09-28T01:09:51;7.70;99.90
56234;DHT22;42141;53.240;6.580;2022-09-28T01:12:18;7.70;99.90
56234;DHT22;42141;53.240;6.580;2022-09-28T01:14:45;7.60;99.90
56234;DHT22;42141;53.240;6.580;2022-09-28T01:17:16;7.60;99.90
56234;DHT22;42141;53.240;6.580;2022-09-28T01:27:48;7.50;99.90
56234;DHT22;42141;53.240;6.580;2022-09-28T01:30:18;7.60;99.90
56234;DHT22;42141;53.240;6.580;2022-09-28T01:33:06;7.40;99.90
56234;DHT22;42141;53.240;6.580;2022-09-28T01:35:40;7.40;99.90
56234;DHT22;42141;53.240;6.580;2022-09-28T01:40:39;7.30;99.90
56234;DHT22;42141;53.240;6.580;2022-09-28T01:43:15;7.30;99.90
56234;DHT22;42141;53.240;6.580;2022-09-28T01:45:44;7.30;99.90
56234;DHT22;42141;53.240;6.580;2022-09-28T01:48:14;7.20;99.90
56234;DHT22;42141;53.240;6.580;2022-09-28T01:50:43;7.20;99.90
56234;DHT22;42141;53.240;6.580;2022-09-28T01:53:21;7.20;99.90
56234;DHT22;42141;53.240;6.580;2022-09-28T01:55:51;7.10;99.90
56234;DHT22;42141;53.240;6.580;2022-09-28T01:58:34;7.10;99.90
56234;DHT22;42141;53.240;6.580;2022-09-28T02:01:30;7.00;99.90
56234;DHT22;42141;53.240;6.580;2022-09-28T02:04:03;7.00;99.90
56234;DHT22;42141;53.240;6.580;2022-09-28T02:06:45;7.70;99.90
56234;DHT22;42141;53.240;6.580;2022-09-28T02:09:20;8.00;99.90
56234;DHT22;42141;53.240;6.580;2022-09-28T02:11:52;8.00;99.90
56234;DHT22;42141;53.240;6.580;2022-09-28T02:14:19;8.20;99.90
56234;DHT22;42141;53.240;6.580;2022-09-28T02:16:51;6.90;99.90
56234;DHT22;42141;53.240;6.580;2022-09-28T02:19:21;6.90;99.90
56234;DHT22;42141;53.240;6.580;2022-09-28T02:21:58;6.90;99.90
56234;DHT22;42141;53.240;6.580;2022-09-28T02:24:46;7.00;99.90
56234;DHT22;42141;53.240;6.580;2022-09-28T02:27:30;7.00;99.90
56234;DHT22;42141;53.240;6.580;2022-09-28T02:29:57;7.00;99.90
56234;DHT22;42141;53.240;6.580;2022-09-28T02:32:23;7.00;99.90
56234;DHT22;42141;53.240;6.580;2022-09-28T02:34:49;7.90;99.90
56234;DHT22;42141;53.240;6.580;2022-09-28T02:37:15;7.80;99.90
56234;DHT22;42141;53.240;6.580;2022-09-28T02:39:40;8.30;99.90
56234;DHT22;42141;53.240;6.580;2022-09-28T02:42:37;8.40;99.90
56234;DHT22;42141;53.240;6.580;2022-09-28T02:48:02;7.20;99.90
56234;DHT22;42141;53.240;6.580;2022-09-28T02:56:09;7.20;99.90
56234;DHT22;42141;53.240;6.580;2022-09-28T02:58:52;7.30;99.90
56234;DHT22;42141;53.240;6.580;2022-09-28T03:01:34;7.30;99.90
56234;DHT22;42141;53.240;6.580;2022-09-28T03:07:05;7.30;99.90
56234;DHT22;42141;53.240;6.580;2022-09-28T03:09:44;7.30;99.90
56234;DHT22;42141;53.240;6.580;2022-09-28T03:12:13;7.30;99.90
56234;DHT22;42141;53.240;6.580;2022-09-28T03:14:41;7.20;99.90
56234;DHT22;42141;53.240;6.580;2022-09-28T03:17:07;7.20;99.90
56234;DHT22;42141;53.240;6.580;2022-09-28T03:19:33;7.10;99.90
56234;DHT22;42141;53.240;6.580;2022-09-28T03:22:01;7.10;99.90
56234;DHT22;42141;53.240;6.580;2022-09-28T03:24:26;7.10;99.90
56234;DHT22;42141;53.240;6.580;2022-09-28T03:26:52;7.90;99.90
56234;DHT22;42141;53.240;6.580;2022-09-28T03:29:18;6.90;99.90
56234;DHT22;42141;53.240;6.580;2022-09-28T03:31:46;7.10;99.90
56234;DHT22;42141;53.240;6.580;2022-09-28T03:34:13;6.90;99.90
56234;DHT22;42141;53.240;6.580;2022-09-28T03:36:39;6.90;99.90
56234;DHT22;42141;53.240;6.580;2022-09-28T03:39:04;6.80;99.90
56234;DHT22;42141;53.240;6.580;2022-09-28T03:41:30;6.90;99.90
56234;DHT22;42141;53.240;6.580;2022-09-28T03:43:56;7.30;99.90
56234;DHT22;42141;53.240;6.580;2022-09-28T03:46:21;8.00;99.90
56234;DHT22;42141;53.240;6.580;2022-09-28T03:48:47;8.00;99.90
56234;DHT22;42141;53.240;6.580;2022-09-28T03:51:12;7.30;99.90
56234;DHT22;42141;53.240;6.580;2022-09-28T03:53:39;6.70;99.90
56234;DHT22;42141;53.240;6.580;2022-09-28T03:56:08;7.80;99.90
56234;DHT22;42141;53.240;6.580;2022-09-28T03:58:35;6.60;99.90
56234;DHT22;42141;53.240;6.580;2022-09-28T04:01:06;6.50;99.90
56234;DHT22;42141;53.240;6.580;2022-09-28T04:03:33;6.60;99.90
56234;DHT22;42141;53.240;6.580;2022-09-28T04:05:59;6.50;99.90
56234;DHT22;42141;53.240;6.580;2022-09-28T04:08:25;6.40;99.90
56234;DHT22;42141;53.240;6.580;2022-09-28T04:10:51;6.50;99.90
56234;DHT22;42141;53.240;6.580;2022-09-28T04:13:17;6.50;99.90
56234;DHT22;42141;53.240;6.580;2022-09-28T04:15:51;6.60;99.90
56234;DHT22;42141;53.240;6.580;2022-09-28T04:18:17;6.70;99.90
56234;DHT22;42141;53.240;6.580;2022-09-28T04:20:42;6.70;99.90
56234;DHT22;42141;53.240;6.580;2022-09-28T04:23:10;6.70;99.90
56234;DHT22;42141;53.240;6.580;2022-09-28T04:25:36;6.80;99.90
56234;DHT22;42141;53.240;6.580;2022-09-28T04:28:04;6.80;99.90
56234;DHT22;42141;53.240;6.580;2022-09-28T04:30:48;6.80;99.90
56234;DHT22;42141;53.240;6.580;2022-09-28T04:33:14;6.90;99.90
56234;DHT22;42141;53.240;6.580;2022-09-28T04:35:40;6.90;99.90
56234;DHT22;42141;53.240;6.580;2022-09-28T04:38:05;6.90;99.90
56234;DHT22;42141;53.240;6.580;2022-09-28T04:40:31;6.80;99.90
56234;DHT22;42141;53.240;6.580;2022-09-28T04:42:57;6.80;99.90
56234;DHT22;42141;53.240;6.580;2022-09-28T04:45:23;6.80;99.90
56234;DHT22;42141;53.240;6.580;2022-09-28T04:47:52;6.90;99.90
56234;DHT22;42141;53.240;6.580;2022-09-28T04:50:19;6.80;99.90
56234;DHT22;42141;53.240;6.580;2022-09-28T04:52:44;5.60;99.90
56234;DHT22;42141;53.240;6.580;2022-09-28T04:55:13;7.80;99.90
56234;DHT22;42141;53.240;6.580;2022-09-28T04:57:39;6.80;99.90
56234;DHT22;42141;53.240;6.580;2022-09-28T05:00:05;6.80;99.90
56234;DHT22;42141;53.240;6.580;2022-09-28T05:02:31;6.80;99.90
56234;DHT22;42141;53.240;6.580;2022-09-28T05:04:59;6.80;99.90
56234;DHT22;42141;53.240;6.580;2022-09-28T05:07:25;7.80;99.90
56234;DHT22;42141;53.240;6.580;2022-09-28T05:09:51;6.80;99.90
56234;DHT22;42141;53.240;6.580;2022-09-28T05:12:19;7.70;99.90
56234;DHT22;42141;53.240;6.580;2022-09-28T05:14:45;6.70;99.90
56234;DHT22;42141;53.240;6.580;2022-09-28T05:17:13;6.80;99.90
56234;DHT22;42141;53.240;6.580;2022-09-28T05:19:39;6.70;99.90
56234;DHT22;42141;53.240;6.580;2022-09-28T05:22:05;7.50;99.90
56234;DHT22;42141;53.240;6.580;2022-09-28T05:24:35;6.70;99.90
56234;DHT22;42141;53.240;6.580;2022-09-28T05:27:01;7.80;99.90
56234;DHT22;42141;53.240;6.580;2022-09-28T05:29:27;6.80;99.90
56234;DHT22;42141;53.240;6.580;2022-09-28T05:31:53;7.50;99.90
56234;DHT22;42141;53.240;6.580;2022-09-28T05:34:18;7.30;99.90
56234;DHT22;42141;53.240;6.580;2022-09-28T05:36:44;6.60;99.90
56234;DHT22;42141;53.240;6.580;2022-09-28T05:39:10;7.90;99.90
56234;DHT22;42141;53.240;6.580;2022-09-28T05:41:36;6.80;99.90
56234;DHT22;42141;53.240;6.580;2022-09-28T05:44:02;6.60;99.90
56234;DHT22;42141;53.240;6.580;2022-09-28T05:46:27;6.60;99.90
56234;DHT22;42141;53.240;6.580;2022-09-28T05:48:53;6.50;99.90
56234;DHT22;42141;53.240;6.580;2022-09-28T05:51:19;6.50;99.90
56234;DHT22;42141;53.240;6.580;2022-09-28T05:53:45;6.40;99.90
56234;DHT22;42141;53.240;6.580;2022-09-28T05:56:11;6.40;99.90
56234;DHT22;42141;53.240;6.580;2022-09-28T05:58:37;7.60;99.90
56234;DHT22;42141;53.240;6.580;2022-09-28T06:01:03;6.40;99.90
56234;DHT22;42141;53.240;6.580;2022-09-28T06:03:29;6.40;99.90
56234;DHT22;42141;53.240;6.580;2022-09-28T06:05:54;6.40;99.90
56234;DHT22;42141;53.240;6.580;2022-09-28T06:08:22;7.20;99.90
56234;DHT22;42141;53.240;6.580;2022-09-28T06:10:51;6.40;99.90
56234;DHT22;42141;53.240;6.580;2022-09-28T06:13:20;6.40;99.90
56234;DHT22;42141;53.240;6.580;2022-09-28T06:15:47;6.40;99.90
56234;DHT22;42141;53.240;6.580;2022-09-28T06:18:13;6.50;99.90
56234;DHT22;42141;53.240;6.580;2022-09-28T06:20:39;7.00;99.90
56234;DHT22;42141;53.240;6.580;2022-09-28T06:23:07;7.20;99.90
56234;DHT22;42141;53.240;6.580;2022-09-28T06:25:32;6.70;99.90
56234;DHT22;42141;53.240;6.580;2022-09-28T06:28:01;6.70;99.90
56234;DHT22;42141;53.240;6.580;2022-09-28T06:30:29;6.80;99.90
56234;DHT22;42141;53.240;6.580;2022-09-28T06:32:58;6.80;99.90
56234;DHT22;42141;53.240;6.580;2022-09-28T06:35:26;6.90;99.90
56234;DHT22;42141;53.240;6.580;2022-09-28T06:37:52;6.90;99.90
56234;DHT22;42141;53.240;6.580;2022-09-28T06:40:19;7.10;99.90
56234;DHT22;42141;53.240;6.580;2022-09-28T06:42:57;7.60;99.90
56234;DHT22;42141;53.240;6.580;2022-09-28T06:45:25;7.10;99.90
56234;DHT22;42141;53.240;6.580;2022-09-28T06:47:55;7.10;99.90
56234;DHT22;42141;53.240;6.580;2022-09-28T06:50:27;7.20;99.90
56234;DHT22;42141;53.240;6.580;2022-09-28T06:52:55;7.30;99.90
56234;DHT22;42141;53.240;6.580;2022-09-28T06:55:23;7.30;99.90
56234;DHT22;42141;53.240;6.580;2022-09-28T06:58:02;8.10;99.90
56234;DHT22;42141;53.240;6.580;2022-09-28T07:00:37;7.40;99.90
56234;DHT22;42141;53.240;6.580;2022-09-28T07:03:06;7.50;99.90
56234;DHT22;42141;53.240;6.580;2022-09-28T07:05:35;7.30;99.90
56234;DHT22;42141;53.240;6.580;2022-09-28T07:08:05;7.60;99.90
56234;DHT22;42141;53.240;6.580;2022-09-28T07:10:48;8.90;99.90
56234;DHT22;42141;53.240;6.580;2022-09-28T07:13:14;7.80;99.90
56234;DHT22;42141;53.240;6.580;2022-09-28T07:15:40;8.20;99.90
56234;DHT22;42141;53.240;6.580;2022-09-28T07:18:07;8.60;99.90
56234;DHT22;42141;53.240;6.580;2022-09-28T07:20:34;8.00;99.90
56234;DHT22;42141;53.240;6.580;2022-09-28T07:23:02;8.60;99.90
56234;DHT22;42141;53.240;6.580;2022-09-28T07:25:28;8.10;99.90
56234;DHT22;42141;53.240;6.580;2022-09-28T07:27:57;8.20;99.90
56234;DHT22;42141;53.240;6.580;2022-09-28T07:30:25;7.40;99.90
56234;DHT22;42141;53.240;6.580;2022-09-28T07:32:52;8.30;99.90
56234;DHT22;42141;53.240;6.580;2022-09-28T07:35:18;8.60;99.90
56234;DHT22;42141;53.240;6.580;2022-09-28T07:37:44;9.70;99.90
56234;DHT22;42141;53.240;6.580;2022-09-28T07:40:10;8.60;99.90
56234;DHT22;42141;53.240;6.580;2022-09-28T07:42:55;8.70;99.90
56234;DHT22;42141;53.240;6.580;2022-09-28T07:45:21;9.80;99.90
56234;DHT22;42141;53.240;6.580;2022-09-28T07:47:54;8.90;99.90
56234;DHT22;42141;53.240;6.580;2022-09-28T07:50:20;9.00;99.90
56234;DHT22;42141;53.240;6.580;2022-09-28T07:52:46;10.00;99.90
56234;DHT22;42141;53.240;6.580;2022-09-28T07:55:13;9.60;99.90
56234;DHT22;42141;53.240;6.580;2022-09-28T07:57:39;9.40;99.90
56234;DHT22;42141;53.240;6.580;2022-09-28T08:00:06;9.40;99.90
56234;DHT22;42141;53.240;6.580;2022-09-28T08:02:34;9.50;99.90
56234;DHT22;42141;53.240;6.580;2022-09-28T08:05:01;9.60;99.90
56234;DHT22;42141;53.240;6.580;2022-09-28T08:07:28;10.20;99.90
56234;DHT22;42141;53.240;6.580;2022-09-28T08:09:54;10.30;99.90
56234;DHT22;42141;53.240;6.580;2022-09-28T08:12:20;9.90;99.90
56234;DHT22;42141;53.240;6.580;2022-09-28T08:14:47;9.60;99.90
56234;DHT22;42141;53.240;6.580;2022-09-28T08:17:16;10.10;99.90
56234;DHT22;42141;53.240;6.580;2022-09-28T08:19:42;10.20;99.90
56234;DHT22;42141;53.240;6.580;2022-09-28T08:22:26;10.80;99.90
56234;DHT22;42141;53.240;6.580;2022-09-28T08:24:56;10.50;99.90
56234;DHT22;42141;53.240;6.580;2022-09-28T08:27:22;9.80;99.90
56234;DHT22;42141;53.240;6.580;2022-09-28T08:29:48;10.60;99.90
56234;DHT22;42141;53.240;6.580;2022-09-28T08:32:14;11.70;99.90
56234;DHT22;42141;53.240;6.580;2022-09-28T08:34:41;10.80;99.90
56234;DHT22;42141;53.240;6.580;2022-09-28T08:37:07;11.30;99.90
56234;DHT22;42141;53.240;6.580;2022-09-28T08:39:37;11.10;99.90
56234;DHT22;42141;53.240;6.580;2022-09-28T08:42:38;12.00;99.90
56234;DHT22;42141;53.240;6.580;2022-09-28T08:45:11;11.10;99.90
56234;DHT22;42141;53.240;6.580;2022-09-28T08:47:48;11.20;99.90
56234;DHT22;42141;53.240;6.580;2022-09-28T08:50:48;11.20;99.90
56234;DHT22;42141;53.240;6.580;2022-09-28T08:56:09;11.70;99.90
56234;DHT22;42141;53.240;6.580;2022-09-28T08:58:42;11.40;99.90
56234;DHT22;42141;53.240;6.580;2022-09-28T09:01:11;12.30;99.90
56234;DHT22;42141;53.240;6.580;2022-09-28T09:03:42;11.50;99.90
56234;DHT22;42141;53.240;6.580;2022-09-28T09:20:30;12.00;99.90
56234;DHT22;42141;53.240;6.580;2022-09-28T09:23:00;12.10;99.90
56234;DHT22;42141;53.240;6.580;2022-09-28T09:25:41;12.20;99.90
56234;DHT22;42141;53.240;6.580;2022-09-28T09:28:38;12.30;99.90
56234;DHT22;42141;53.240;6.580;2022-09-28T09:34:19;12.60;99.90
56234;DHT22;42141;53.240;6.580;2022-09-28T09:36:58;12.70;99.90
56234;DHT22;42141;53.240;6.580;2022-09-28T09:45:42;13.00;99.90
56234;DHT22;42141;53.240;6.580;2022-09-28T09:48:44;13.20;99.90
56234;DHT22;42141;53.240;6.580;2022-09-28T09:51:41;13.30;99.90
56234;DHT22;42141;53.240;6.580;2022-09-28T09:54:20;13.40;99.90
56234;DHT22;42141;53.240;6.580;2022-09-28T09:56:54;13.50;99.90
56234;DHT22;42141;53.240;6.580;2022-09-28T09:59:26;13.60;99.90
56234;DHT22;42141;53.240;6.580;2022-09-28T10:02:12;13.50;99.90
56234;DHT22;42141;53.240;6.580;2022-09-28T10:04:42;13.50;99.90
56234;DHT22;42141;53.240;6.580;2022-09-28T10:07:18;13.50;99.90
56234;DHT22;42141;53.240;6.580;2022-09-28T10:09:46;13.50;99.90
56234;DHT22;42141;53.240;6.580;2022-09-28T10:12:18;13.60;99.90
56234;DHT22;42141;53.240;6.580;2022-09-28T10:14:44;13.80;99.90
56234;DHT22;42141;53.240;6.580;2022-09-28T10:17:14;14.00;99.90
56234;DHT22;42141;53.240;6.580;2022-09-28T10:19:41;14.10;99.90
56234;DHT22;42141;53.240;6.580;2022-09-28T10:22:15;14.10;99.90
56234;DHT22;42141;53.240;6.580;2022-09-28T10:24:53;14.10;99.90
56234;DHT22;42141;53.240;6.580;2022-09-28T10:27:30;14.00;99.90
56234;DHT22;42141;53.240;6.580;2022-09-28T10:32:44;13.90;99.90
56234;DHT22;42141;53.240;6.580;2022-09-28T10:35:24;13.90;99.90
56234;DHT22;42141;53.240;6.580;2022-09-28T10:40:51;13.80;99.90
56234;DHT22;42141;53.240;6.580;2022-09-28T10:46:19;13.80;99.90
56234;DHT22;42141;53.240;6.580;2022-09-28T10:48:50;13.80;99.90
56234;DHT22;42141;53.240;6.580;2022-09-28T10:51:16;13.90;99.90
56234;DHT22;42141;53.240;6.580;2022-09-28T10:53:58;13.90;99.90
56234;DHT22;42141;53.240;6.580;2022-09-28T10:56:34;14.90;99.90
56234;DHT22;42141;53.240;6.580;2022-09-28T10:59:00;14.50;99.90
56234;DHT22;42141;53.240;6.580;2022-09-28T11:01:31;14.00;99.90
56234;DHT22;42141;53.240;6.580;2022-09-28T11:04:02;14.00;99.90
56234;DHT22;42141;53.240;6.580;2022-09-28T11:06:36;14.00;99.90
56234;DHT22;42141;53.240;6.580;2022-09-28T11:09:06;14.30;99.90
56234;DHT22;42141;53.240;6.580;2022-09-28T11:11:41;13.90;99.90
56234;DHT22;42141;53.240;6.580;2022-09-28T11:14:32;13.90;99.90
56234;DHT22;42141;53.240;6.580;2022-09-28T11:17:30;14.10;99.90
56234;DHT22;42141;53.240;6.580;2022-09-28T11:22:45;13.80;99.90
56234;DHT22;42141;53.240;6.580;2022-09-28T11:30:30;14.00;99.90
56234;DHT22;42141;53.240;6.580;2022-09-28T11:33:11;14.00;99.90
56234;DHT22;42141;53.240;6.580;2022-09-28T11:36:08;14.10;99.90
56234;DHT22;42141;53.240;6.580;2022-09-28T11:47:02;14.40;99.90
56234;DHT22;42141;53.240;6.580;2022-09-28T11:49:53;14.50;99.90
56234;DHT22;42141;53.240;6.580;2022-09-28T11:52:26;14.50;99.90
56234;DHT22;42141;53.240;6.580;2022-09-28T11:57:43;14.40;99.90
56234;DHT22;42141;53.240;6.580;2022-09-28T12:00:15;14.70;99.90
56234;DHT22;42141;53.240;6.580;2022-09-28T12:05:33;13.80;99.90
56234;DHT22;42141;53.240;6.580;2022-09-28T12:08:15;14.10;99.90
56234;DHT22;42141;53.240;6.580;2022-09-28T12:13:12;14.10;99.90
56234;DHT22;42141;53.240;6.580;2022-09-28T12:18:22;14.10;99.90
56234;DHT22;42141;53.240;6.580;2022-09-28T12:24:30;14.10;99.90
56234;DHT22;42141;53.240;6.580;2022-09-28T12:34:47;14.20;99.90
56234;DHT22;42141;53.240;6.580;2022-09-28T12:37:20;14.10;99.90
56234;DHT22;42141;53.240;6.580;2022-09-28T12:40:14;14.00;99.90
56234;DHT22;42141;53.240;6.580;2022-09-28T12:43:05;14.00;99.90
56234;DHT22;42141;53.240;6.580;2022-09-28T12:57:25;13.50;99.90
56234;DHT22;42141;53.240;6.580;2022-09-28T13:05:16;13.30;99.90
56234;DHT22;42141;53.240;6.580;2022-09-28T13:11:46;13.00;99.90
56234;DHT22;42141;53.240;6.580;2022-09-28T13:23:55;13.40;99.90
56234;DHT22;42141;53.240;6.580;2022-09-28T13:26:33;13.60;99.90
56234;DHT22;42141;53.240;6.580;2022-09-28T13:29:10;14.30;99.90
56234;DHT22;42141;53.240;6.580;2022-09-28T13:31:44;14.20;99.90
56234;DHT22;42141;53.240;6.580;2022-09-28T13:34:16;14.80;99.90
56234;DHT22;42141;53.240;6.580;2022-09-28T13:36:45;14.80;99.90
56234;DHT22;42141;53.240;6.580;2022-09-28T13:42:11;15.40;99.90
56234;DHT22;42141;53.240;6.580;2022-09-28T13:45:00;15.40;99.90
56234;DHT22;42141;53.240;6.580;2022-09-28T13:53:14;15.90;99.90
56234;DHT22;42141;53.240;6.580;2022-09-28T13:55:52;16.20;99.90
56234;DHT22;42141;53.240;6.580;2022-09-28T13:58:28;16.50;99.90
56234;DHT22;42141;53.240;6.580;2022-09-28T14:01:02;16.60;99.90
56234;DHT22;42141;53.240;6.580;2022-09-28T14:03:58;16.50;99.90
56234;DHT22;42141;53.240;6.580;2022-09-28T14:06:35;16.70;99.90
56234;DHT22;42141;53.240;6.580;2022-09-28T14:16:41;17.00;99.90
56234;DHT22;42141;53.240;6.580;2022-09-28T14:19:24;17.00;99.90
56234;DHT22;42141;53.240;6.580;2022-09-28T14:22:06;17.00;99.90
56234;DHT22;42141;53.240;6.580;2022-09-28T14:24:56;16.90;99.90
56234;DHT22;42141;53.240;6.580;2022-09-28T14:32:38;17.70;99.90
56234;DHT22;42141;53.240;6.580;2022-09-28T14:35:07;17.80;99.90
56234;DHT22;42141;53.240;6.580;2022-09-28T14:37:40;17.40;99.90
56234;DHT22;42141;53.240;6.580;2022-09-28T14:54:12;16.80;99.90
56234;DHT22;42141;53.240;6.580;2022-09-28T14:59:06;16.50;99.90
56234;DHT22;42141;53.240;6.580;2022-09-28T15:01:37;16.30;99.90
56234;DHT22;42141;53.240;6.580;2022-09-28T15:04:08;16.10;99.90
56234;DHT22;42141;53.240;6.580;2022-09-28T15:06:46;16.00;99.90
56234;DHT22;42141;53.240;6.580;2022-09-28T15:09:29;15.80;99.90
56234;DHT22;42141;53.240;6.580;2022-09-28T15:12:13;15.60;99.90
56234;DHT22;42141;53.240;6.580;2022-09-28T15:17:10;15.70;99.90
56234;DHT22;42141;53.240;6.580;2022-09-28T15:22:33;15.40;99.90
56234;DHT22;42141;53.240;6.580;2022-09-28T15:25:02;15.40;99.90
56234;DHT22;42141;53.240;6.580;2022-09-28T15:27:36;15.30;99.90
56234;DHT22;42141;53.240;6.580;2022-09-28T15:30:27;15.30;99.90
56234;DHT22;42141;53.240;6.580;2022-09-28T15:33:02;15.10;99.90
56234;DHT22;42141;53.240;6.580;2022-09-28T15:36:24;15.00;99.90
56234;DHT22;42141;53.240;6.580;2022-09-28T15:41:42;14.80;99.90
56234;DHT22;42141;53.240;6.580;2022-09-28T15:46:45;14.60;99.90
56234;DHT22;42141;53.240;6.580;2022-09-28T15:49:34;14.50;99.90
56234;DHT22;42141;53.240;6.580;2022-09-28T15:52:01;14.40;99.90
56234;DHT22;42141;53.240;6.580;2022-09-28T15:54:30;14.30;99.90
56234;DHT22;42141;53.240;6.580;2022-09-28T15:57:01;14.20;99.90
56234;DHT22;42141;53.240;6.580;2022-09-28T15:59:38;14.20;99.90
56234;DHT22;42141;53.240;6.580;2022-09-28T16:02:18;14.10;99.90
56234;DHT22;42141;53.240;6.580;2022-09-28T16:04:52;14.00;99.90
56234;DHT22;42141;53.240;6.580;2022-09-28T16:07:44;14.10;99.90
56234;DHT22;42141;53.240;6.580;2022-09-28T16:15:56;13.90;99.90
56234;DHT22;42141;53.240;6.580;2022-09-28T16:18:25;13.90;99.90
56234;DHT22;42141;53.240;6.580;2022-09-28T16:20:56;13.20;99.90
56234;DHT22;42141;53.240;6.580;2022-09-28T16:23:32;13.70;99.90
56234;DHT22;42141;53.240;6.580;2022-09-28T16:26:09;13.60;99.90
56234;DHT22;42141;53.240;6.580;2022-09-28T16:33:43;13.30;99.90
56234;DHT22;42141;53.240;6.580;2022-09-28T16:36:14;13.20;99.90
56234;DHT22;42141;53.240;6.580;2022-09-28T16:38:47;13.00;99.90
56234;DHT22;42141;53.240;6.580;2022-09-28T16:41:16;13.00;99.90
56234;DHT22;42141;53.240;6.580;2022-09-28T16:43:45;12.90;99.90
56234;DHT22;42141;53.240;6.580;2022-09-28T16:46:19;13.70;99.90
56234;DHT22;42141;53.240;6.580;2022-09-28T16:49:20;12.70;99.90
56234;DHT22;42141;53.240;6.580;2022-09-28T16:51:47;12.60;99.90
56234;DHT22;42141;53.240;6.580;2022-09-28T16:54:18;12.60;99.90
56234;DHT22;42141;53.240;6.580;2022-09-28T16:57:04;13.60;99.90
56234;DHT22;42141;53.240;6.580;2022-09-28T16:59:31;12.40;99.90
56234;DHT22;42141;53.240;6.580;2022-09-28T17:01:57;12.30;99.90
56234;DHT22;42141;53.240;6.580;2022-09-28T17:04:24;12.20;99.90
56234;DHT22;42141;53.240;6.580;2022-09-28T17:06:51;12.10;99.90
56234;DHT22;42141;53.240;6.580;2022-09-28T17:09:22;11.70;99.90
56234;DHT22;42141;53.240;6.580;2022-09-28T17:11:48;12.00;99.90
56234;DHT22;42141;53.240;6.580;2022-09-28T17:14:20;11.10;99.90
56234;DHT22;42141;53.240;6.580;2022-09-28T17:16:48;11.80;99.90
56234;DHT22;42141;53.240;6.580;2022-09-28T17:19:23;12.10;99.90
56234;DHT22;42141;53.240;6.580;2022-09-28T17:21:55;11.60;99.90
56234;DHT22;42141;53.240;6.580;2022-09-28T17:24:21;11.50;99.90
56234;DHT22;42141;53.240;6.580;2022-09-28T17:26:58;10.50;99.90
56234;DHT22;42141;53.240;6.580;2022-09-28T17:29:31;11.30;99.90
56234;DHT22;42141;53.240;6.580;2022-09-28T17:31:58;11.20;99.90
56234;DHT22;42141;53.240;6.580;2022-09-28T17:34:33;11.10;99.90
56234;DHT22;42141;53.240;6.580;2022-09-28T17:36:58;11.00;99.90
56234;DHT22;42141;53.240;6.580;2022-09-28T17:39:24;11.00;99.90
56234;DHT22;42141;53.240;6.580;2022-09-28T17:41:50;10.90;99.90
56234;DHT22;42141;53.240;6.580;2022-09-28T17:44:16;11.70;99.90
56234;DHT22;42141;53.240;6.580;2022-09-28T17:46:49;9.80;99.90
56234;DHT22;42141;53.240;6.580;2022-09-28T17:49:16;10.60;99.90
56234;DHT22;42141;53.240;6.580;2022-09-28T17:51:42;10.50;99.90
56234;DHT22;42141;53.240;6.580;2022-09-28T17:54:08;10.40;99.90
56234;DHT22;42141;53.240;6.580;2022-09-28T17:56:35;10.30;99.90
56234;DHT22;42141;53.240;6.580;2022-09-28T17:59:06;10.50;99.90
56234;DHT22;42141;53.240;6.580;2022-09-28T18:01:33;10.20;99.90
56234;DHT22;42141;53.240;6.580;2022-09-28T18:04:04;10.10;99.90
56234;DHT22;42141;53.240;6.580;2022-09-28T18:06:43;10.10;99.90
56234;DHT22;42141;53.240;6.580;2022-09-28T18:09:13;10.10;99.90
56234;DHT22;42141;53.240;6.580;2022-09-28T18:11:42;10.00;99.90
56234;DHT22;42141;53.240;6.580;2022-09-28T18:14:09;10.00;99.90
56234;DHT22;42141;53.240;6.580;2022-09-28T18:16:35;10.30;99.90
56234;DHT22;42141;53.240;6.580;2022-09-28T18:19:03;9.90;99.90
56234;DHT22;42141;53.240;6.580;2022-09-28T18:21:31;9.80;99.90
56234;DHT22;42141;53.240;6.580;2022-09-28T18:23:57;9.80;99.90
56234;DHT22;42141;53.240;6.580;2022-09-28T18:26:23;9.80;99.90
56234;DHT22;42141;53.240;6.580;2022-09-28T18:28:53;9.70;99.90
56234;DHT22;42141;53.240;6.580;2022-09-28T18:31:19;9.20;99.90
56234;DHT22;42141;53.240;6.580;2022-09-28T18:33:56;9.50;99.90
56234;DHT22;42141;53.240;6.580;2022-09-28T18:36:31;9.50;99.90
56234;DHT22;42141;53.240;6.580;2022-09-28T18:39:00;9.40;99.90
56234;DHT22;42141;53.240;6.580;2022-09-28T18:41:26;8.60;99.90
56234;DHT22;42141;53.240;6.580;2022-09-28T18:43:53;9.30;99.90
56234;DHT22;42141;53.240;6.580;2022-09-28T18:46:28;9.20;99.90
56234;DHT22;42141;53.240;6.580;2022-09-28T18:48:54;9.80;99.90
56234;DHT22;42141;53.240;6.580;2022-09-28T18:51:20;9.20;99.90
56234;DHT22;42141;53.240;6.580;2022-09-28T18:53:47;9.10;99.90
56234;DHT22;42141;53.240;6.580;2022-09-28T18:56:15;9.10;99.90
56234;DHT22;42141;53.240;6.580;2022-09-28T18:58:46;9.00;99.90
56234;DHT22;42141;53.240;6.580;2022-09-28T19:01:15;9.00;99.90
56234;DHT22;42141;53.240;6.580;2022-09-28T19:03:41;8.90;99.90
56234;DHT22;42141;53.240;6.580;2022-09-28T19:06:09;9.60;99.90
56234;DHT22;42141;53.240;6.580;2022-09-28T19:08:36;8.80;99.90
56234;DHT22;42141;53.240;6.580;2022-09-28T19:13:47;8.80;99.90
56234;DHT22;42141;53.240;6.580;2022-09-28T19:16:18;9.20;99.90
56234;DHT22;42141;53.240;6.580;2022-09-28T19:18:45;8.10;99.90
56234;DHT22;42141;53.240;6.580;2022-09-28T19:21:13;9.80;99.90